sensor_id;sensor_type;location;lat;lon;timestamp;P1;durP1;ratioP1;P2;durP2;ratioP2
18574;SDS011;9417;16.484;102.872;2023-02-15T00:00:45;7.93;;;4.88;;
18574;SDS011;9417;16.484;102.872;2023-02-15T00:02:54;13.55;;;6.72;;
18574;SDS011;9417;16.484;102.872;2023-02-15T00:05:01;21.02;;;8.57;;
18574;SDS011;9417;16.484;102.872;2023-02-15T00:07:08;26.25;;;10.13;;
18574;SDS011;9417;16.484;102.872;2023-02-15T00:09:16;29.70;;;9.63;;
18574;SDS011;9417;16.484;102.872;2023-02-15T00:11:23;20.73;;;8.95;;
18574;SDS011;9417;16.484;102.872;2023-02-15T00:13:46;14.70;;;7.22;;
18574;SDS011;9417;16.484;102.872;2023-02-15T00:15:53;8.98;;;5.05;;
18574;SDS011;9417;16.484;102.872;2023-02-15T00:18:07;9.82;;;4.80;;
18574;SDS011;9417;16.484;102.872;2023-02-15T00:20:14;10.43;;;5.10;;
18574;SDS011;9417;16.484;102.872;2023-02-15T00:22:22;8.35;;;4.85;;
18574;SDS011;9417;16.484;102.872;2023-02-15T00:24:28;12.45;;;6.07;;
18574;SDS011;9417;16.484;102.872;2023-02-15T00:26:37;9.88;;;6.03;;
18574;SDS011;9417;16.484;102.872;2023-02-15T00:28:45;10.25;;;5.78;;
18574;SDS011;9417;16.484;102.872;2023-02-15T00:30:53;8.73;;;4.82;;
18574;SDS011;9417;16.484;102.872;2023-02-15T00:33:11;8.68;;;4.60;;
18574;SDS011;9417;16.484;102.872;2023-02-15T00:35:19;10.80;;;5.53;;
18574;SDS011;9417;16.484;102.872;2023-02-15T00:37:26;17.23;;;6.32;;
18574;SDS011;9417;16.484;102.872;2023-02-15T00:39:33;10.15;;;5.80;;
18574;SDS011;9417;16.484;102.872;2023-02-15T00:41:40;14.13;;;5.90;;
18574;SDS011;9417;16.484;102.872;2023-02-15T00:43:48;11.15;;;5.22;;
18574;SDS011;9417;16.484;102.872;2023-02-15T00:45:55;10.25;;;5.13;;
18574;SDS011;9417;16.484;102.872;2023-02-15T00:48:03;13.30;;;6.53;;
18574;SDS011;9417;16.484;102.872;2023-02-15T00:50:12;9.52;;;5.85;;
18574;SDS011;9417;16.484;102.872;2023-02-15T00:52:20;10.40;;;5.50;;
18574;SDS011;9417;16.484;102.872;2023-02-15T00:54:27;11.45;;;5.32;;
18574;SDS011;9417;16.484;102.872;2023-02-15T00:56:34;7.55;;;4.55;;
18574;SDS011;9417;16.484;102.872;2023-02-15T00:58:42;8.43;;;4.70;;
18574;SDS011;9417;16.484;102.872;2023-02-15T01:00:50;10.13;;;4.15;;
18574;SDS011;9417;16.484;102.872;2023-02-15T01:02:58;10.95;;;5.07;;
18574;SDS011;9417;16.484;102.872;2023-02-15T01:05:05;7.40;;;4.57;;
18574;SDS011;9417;16.484;102.872;2023-02-15T01:07:15;10.38;;;5.63;;
18574;SDS011;9417;16.484;102.872;2023-02-15T01:09:22;9.80;;;4.57;;
18574;SDS011;9417;16.484;102.872;2023-02-15T01:11:30;11.18;;;5.50;;
18574;SDS011;9417;16.484;102.872;2023-02-15T01:13:37;8.73;;;5.18;;
18574;SDS011;9417;16.484;102.872;2023-02-15T01:15:45;9.02;;;5.38;;
18574;SDS011;9417;16.484;102.872;2023-02-15T01:17:57;11.18;;;5.80;;
18574;SDS011;9417;16.484;102.872;2023-02-15T01:20:04;14.73;;;6.82;;
18574;SDS011;9417;16.484;102.872;2023-02-15T01:22:12;11.65;;;6.07;;
18574;SDS011;9417;16.484;102.872;2023-02-15T01:24:21;10.25;;;5.82;;
18574;SDS011;9417;16.484;102.872;2023-02-15T01:26:28;10.18;;;5.95;;
18574;SDS011;9417;16.484;102.872;2023-02-15T01:28:36;8.07;;;4.60;;
18574;SDS011;9417;16.484;102.872;2023-02-15T01:30:43;7.45;;;4.90;;
18574;SDS011;9417;16.484;102.872;2023-02-15T01:32:51;6.53;;;4.35;;
18574;SDS011;9417;16.484;102.872;2023-02-15T01:34:58;9.38;;;4.95;;
18574;SDS011;9417;16.484;102.872;2023-02-15T01:37:05;7.03;;;4.60;;
18574;SDS011;9417;16.484;102.872;2023-02-15T01:39:14;8.15;;;4.30;;
18574;SDS011;9417;16.484;102.872;2023-02-15T01:41:22;8.40;;;4.38;;
18574;SDS011;9417;16.484;102.872;2023-02-15T01:43:39;6.57;;;4.22;;
18574;SDS011;9417;16.484;102.872;2023-02-15T01:45:47;7.03;;;4.30;;
18574;SDS011;9417;16.484;102.872;2023-02-15T01:47:58;6.40;;;3.90;;
18574;SDS011;9417;16.484;102.872;2023-02-15T01:50:08;8.68;;;4.75;;
18574;SDS011;9417;16.484;102.872;2023-02-15T01:52:21;10.85;;;4.47;;
18574;SDS011;9417;16.484;102.872;2023-02-15T01:54:31;7.72;;;3.95;;
18574;SDS011;9417;16.484;102.872;2023-02-15T01:56:39;7.35;;;3.95;;
18574;SDS011;9417;16.484;102.872;2023-02-15T01:58:47;7.88;;;4.15;;
18574;SDS011;9417;16.484;102.872;2023-02-15T02:00:57;6.57;;;4.10;;
18574;SDS011;9417;16.484;102.872;2023-02-15T02:03:07;9.35;;;4.70;;
18574;SDS011;9417;16.484;102.872;2023-02-15T02:05:14;6.50;;;4.18;;
18574;SDS011;9417;16.484;102.872;2023-02-15T02:07:21;10.52;;;4.70;;
18574;SDS011;9417;16.484;102.872;2023-02-15T02:09:36;7.57;;;4.40;;
18574;SDS011;9417;16.484;102.872;2023-02-15T02:11:44;5.90;;;4.13;;
18574;SDS011;9417;16.484;102.872;2023-02-15T02:13:52;5.65;;;3.85;;
18574;SDS011;9417;16.484;102.872;2023-02-15T02:16:01;9.60;;;4.50;;
18574;SDS011;9417;16.484;102.872;2023-02-15T02:18:17;12.43;;;3.88;;
18574;SDS011;9417;16.484;102.872;2023-02-15T02:20:52;8.50;;;5.03;;
18574;SDS011;9417;16.484;102.872;2023-02-15T02:23:24;7.35;;;4.60;;
18574;SDS011;9417;16.484;102.872;2023-02-15T02:26:03;7.13;;;4.60;;
18574;SDS011;9417;16.484;102.872;2023-02-15T02:28:41;8.57;;;4.97;;
18574;SDS011;9417;16.484;102.872;2023-02-15T02:31:16;10.88;;;6.55;;
18574;SDS011;9417;16.484;102.872;2023-02-15T02:33:49;16.13;;;9.70;;
18574;SDS011;9417;16.484;102.872;2023-02-15T02:36:06;10.25;;;6.80;;
18574;SDS011;9417;16.484;102.872;2023-02-15T02:38:23;11.25;;;6.80;;
18574;SDS011;9417;16.484;102.872;2023-02-15T02:40:41;12.57;;;7.35;;
18574;SDS011;9417;16.484;102.872;2023-02-15T02:42:58;11.50;;;6.18;;
18574;SDS011;9417;16.484;102.872;2023-02-15T02:45:09;10.02;;;4.82;;
18574;SDS011;9417;16.484;102.872;2023-02-15T02:47:21;8.07;;;4.45;;
18574;SDS011;9417;16.484;102.872;2023-02-15T02:49:34;5.95;;;3.97;;
18574;SDS011;9417;16.484;102.872;2023-02-15T02:51:42;12.20;;;4.78;;
18574;SDS011;9417;16.484;102.872;2023-02-15T02:53:50;6.60;;;4.05;;
18574;SDS011;9417;16.484;102.872;2023-02-15T02:56:03;9.27;;;4.28;;
18574;SDS011;9417;16.484;102.872;2023-02-15T02:58:13;8.15;;;4.47;;
18574;SDS011;9417;16.484;102.872;2023-02-15T03:00:24;7.90;;;3.92;;
18574;SDS011;9417;16.484;102.872;2023-02-15T03:02:34;6.60;;;4.15;;
18574;SDS011;9417;16.484;102.872;2023-02-15T03:04:45;7.78;;;4.70;;
18574;SDS011;9417;16.484;102.872;2023-02-15T03:07:03;8.40;;;4.68;;
18574;SDS011;9417;16.484;102.872;2023-02-15T03:09:14;7.55;;;5.07;;
18574;SDS011;9417;16.484;102.872;2023-02-15T03:11:25;7.35;;;4.50;;
18574;SDS011;9417;16.484;102.872;2023-02-15T03:13:33;8.13;;;5.05;;
18574;SDS011;9417;16.484;102.872;2023-02-15T03:15:41;8.68;;;5.15;;
18574;SDS011;9417;16.484;102.872;2023-02-15T03:18:07;8.80;;;4.88;;
18574;SDS011;9417;16.484;102.872;2023-02-15T03:20:17;6.70;;;4.45;;
18574;SDS011;9417;16.484;102.872;2023-02-15T03:22:30;8.82;;;4.80;;
18574;SDS011;9417;16.484;102.872;2023-02-15T03:24:49;7.20;;;4.22;;
18574;SDS011;9417;16.484;102.872;2023-02-15T03:27:04;9.45;;;5.55;;
18574;SDS011;9417;16.484;102.872;2023-02-15T03:29:14;9.80;;;6.05;;
18574;SDS011;9417;16.484;102.872;2023-02-15T03:31:26;13.20;;;6.57;;
18574;SDS011;9417;16.484;102.872;2023-02-15T03:33:38;6.50;;;4.35;;
18574;SDS011;9417;16.484;102.872;2023-02-15T03:35:52;8.65;;;4.50;;
18574;SDS011;9417;16.484;102.872;2023-02-15T03:38:06;5.50;;;3.40;;
18574;SDS011;9417;16.484;102.872;2023-02-15T03:40:16;9.13;;;4.10;;
18574;SDS011;9417;16.484;102.872;2023-02-15T03:42:43;8.02;;;3.67;;
18574;SDS011;9417;16.484;102.872;2023-02-15T03:44:54;7.35;;;3.65;;
18574;SDS011;9417;16.484;102.872;2023-02-15T03:47:05;8.65;;;4.10;;
18574;SDS011;9417;16.484;102.872;2023-02-15T03:49:18;9.80;;;3.17;;
18574;SDS011;9417;16.484;102.872;2023-02-15T03:51:32;5.90;;;3.28;;
18574;SDS011;9417;16.484;102.872;2023-02-15T03:53:41;5.55;;;3.30;;
18574;SDS011;9417;16.484;102.872;2023-02-15T03:55:52;7.20;;;3.80;;
18574;SDS011;9417;16.484;102.872;2023-02-15T03:58:00;5.20;;;3.13;;
18574;SDS011;9417;16.484;102.872;2023-02-15T04:00:25;5.00;;;3.35;;
18574;SDS011;9417;16.484;102.872;2023-02-15T04:02:52;5.82;;;3.30;;
18574;SDS011;9417;16.484;102.872;2023-02-15T04:05:12;5.65;;;3.15;;
18574;SDS011;9417;16.484;102.872;2023-02-15T04:07:21;5.07;;;2.80;;
18574;SDS011;9417;16.484;102.872;2023-02-15T04:09:28;8.02;;;3.65;;
18574;SDS011;9417;16.484;102.872;2023-02-15T04:11:52;6.13;;;3.00;;
18574;SDS011;9417;16.484;102.872;2023-02-15T04:13:59;4.90;;;2.50;;
18574;SDS011;9417;16.484;102.872;2023-02-15T04:16:28;6.28;;;3.00;;
18574;SDS011;9417;16.484;102.872;2023-02-15T04:18:34;5.88;;;3.10;;
18574;SDS011;9417;16.484;102.872;2023-02-15T04:20:58;4.28;;;2.78;;
18574;SDS011;9417;16.484;102.872;2023-02-15T04:23:24;4.10;;;2.92;;
18574;SDS011;9417;16.484;102.872;2023-02-15T04:25:47;3.85;;;2.60;;
18574;SDS011;9417;16.484;102.872;2023-02-15T04:27:54;5.95;;;3.65;;
18574;SDS011;9417;16.484;102.872;2023-02-15T04:30:02;5.18;;;3.40;;
18574;SDS011;9417;16.484;102.872;2023-02-15T04:32:09;4.07;;;2.80;;
18574;SDS011;9417;16.484;102.872;2023-02-15T04:34:16;4.80;;;3.25;;
18574;SDS011;9417;16.484;102.872;2023-02-15T04:36:23;5.65;;;2.88;;
18574;SDS011;9417;16.484;102.872;2023-02-15T04:38:32;6.53;;;2.75;;
18574;SDS011;9417;16.484;102.872;2023-02-15T04:40:39;6.63;;;3.28;;
18574;SDS011;9417;16.484;102.872;2023-02-15T04:42:47;6.63;;;3.38;;
18574;SDS011;9417;16.484;102.872;2023-02-15T04:44:54;4.05;;;2.88;;
18574;SDS011;9417;16.484;102.872;2023-02-15T04:47:01;4.55;;;3.08;;
18574;SDS011;9417;16.484;102.872;2023-02-15T04:49:09;8.38;;;3.45;;
18574;SDS011;9417;16.484;102.872;2023-02-15T04:51:16;4.70;;;3.13;;
18574;SDS011;9417;16.484;102.872;2023-02-15T04:53:23;4.85;;;3.40;;
18574;SDS011;9417;16.484;102.872;2023-02-15T04:55:32;4.85;;;3.47;;
18574;SDS011;9417;16.484;102.872;2023-02-15T04:57:39;7.00;;;3.90;;
18574;SDS011;9417;16.484;102.872;2023-02-15T04:59:46;4.35;;;3.28;;
18574;SDS011;9417;16.484;102.872;2023-02-15T05:01:53;5.15;;;3.50;;
18574;SDS011;9417;16.484;102.872;2023-02-15T05:04:00;7.60;;;3.15;;
18574;SDS011;9417;16.484;102.872;2023-02-15T05:06:08;5.00;;;3.40;;
18574;SDS011;9417;16.484;102.872;2023-02-15T05:08:15;6.28;;;3.70;;
18574;SDS011;9417;16.484;102.872;2023-02-15T05:10:22;7.32;;;3.60;;
18574;SDS011;9417;16.484;102.872;2023-02-15T05:12:30;6.30;;;3.47;;
18574;SDS011;9417;16.484;102.872;2023-02-15T05:14:37;8.32;;;4.85;;
18574;SDS011;9417;16.484;102.872;2023-02-15T05:16:45;5.50;;;3.63;;
18574;SDS011;9417;16.484;102.872;2023-02-15T05:18:52;5.07;;;3.50;;
18574;SDS011;9417;16.484;102.872;2023-02-15T05:20:59;8.48;;;4.93;;
18574;SDS011;9417;16.484;102.872;2023-02-15T05:23:06;8.63;;;4.95;;
18574;SDS011;9417;16.484;102.872;2023-02-15T05:25:13;6.95;;;4.25;;
18574;SDS011;9417;16.484;102.872;2023-02-15T05:27:38;6.60;;;3.97;;
18574;SDS011;9417;16.484;102.872;2023-02-15T05:30:02;7.57;;;4.18;;
18574;SDS011;9417;16.484;102.872;2023-02-15T05:32:15;5.38;;;3.67;;
18574;SDS011;9417;16.484;102.872;2023-02-15T05:34:22;6.20;;;4.18;;
18574;SDS011;9417;16.484;102.872;2023-02-15T05:36:29;6.68;;;3.95;;
18574;SDS011;9417;16.484;102.872;2023-02-15T05:38:37;9.35;;;4.10;;
18574;SDS011;9417;16.484;102.872;2023-02-15T05:40:44;5.93;;;3.92;;
18574;SDS011;9417;16.484;102.872;2023-02-15T05:42:53;8.15;;;4.53;;
18574;SDS011;9417;16.484;102.872;2023-02-15T05:45:01;10.60;;;3.95;;
18574;SDS011;9417;16.484;102.872;2023-02-15T05:47:09;6.70;;;3.95;;
18574;SDS011;9417;16.484;102.872;2023-02-15T05:49:16;6.03;;;4.20;;
18574;SDS011;9417;16.484;102.872;2023-02-15T05:51:23;6.38;;;3.85;;
18574;SDS011;9417;16.484;102.872;2023-02-15T05:53:31;6.95;;;4.22;;
18574;SDS011;9417;16.484;102.872;2023-02-15T05:55:40;6.70;;;4.30;;
18574;SDS011;9417;16.484;102.872;2023-02-15T05:57:47;7.63;;;4.82;;
18574;SDS011;9417;16.484;102.872;2023-02-15T05:59:56;6.22;;;4.35;;
18574;SDS011;9417;16.484;102.872;2023-02-15T06:02:12;7.43;;;4.20;;
18574;SDS011;9417;16.484;102.872;2023-02-15T06:04:20;5.40;;;3.95;;
18574;SDS011;9417;16.484;102.872;2023-02-15T06:06:27;6.97;;;4.60;;
18574;SDS011;9417;16.484;102.872;2023-02-15T06:08:34;6.95;;;4.22;;
18574;SDS011;9417;16.484;102.872;2023-02-15T06:10:42;6.15;;;4.18;;
18574;SDS011;9417;16.484;102.872;2023-02-15T06:12:50;6.57;;;4.57;;
18574;SDS011;9417;16.484;102.872;2023-02-15T06:14:59;69.35;;;36.85;;
18574;SDS011;9417;16.484;102.872;2023-02-15T06:17:07;26.00;;;15.10;;
18574;SDS011;9417;16.484;102.872;2023-02-15T06:19:14;9.70;;;6.10;;
18574;SDS011;9417;16.484;102.872;2023-02-15T06:21:21;9.60;;;5.63;;
18574;SDS011;9417;16.484;102.872;2023-02-15T06:23:28;8.27;;;4.50;;
18574;SDS011;9417;16.484;102.872;2023-02-15T06:25:35;7.10;;;4.90;;
18574;SDS011;9417;16.484;102.872;2023-02-15T06:27:42;7.18;;;4.80;;
18574;SDS011;9417;16.484;102.872;2023-02-15T06:29:49;7.82;;;4.63;;
18574;SDS011;9417;16.484;102.872;2023-02-15T06:31:58;7.25;;;4.45;;
18574;SDS011;9417;16.484;102.872;2023-02-15T06:34:06;6.32;;;4.32;;
18574;SDS011;9417;16.484;102.872;2023-02-15T06:36:13;6.20;;;4.35;;
18574;SDS011;9417;16.484;102.872;2023-02-15T06:38:20;8.35;;;4.38;;
18574;SDS011;9417;16.484;102.872;2023-02-15T06:40:28;6.28;;;4.70;;
18574;SDS011;9417;16.484;102.872;2023-02-15T06:42:35;6.57;;;4.03;;
18574;SDS011;9417;16.484;102.872;2023-02-15T06:44:42;8.50;;;4.65;;
18574;SDS011;9417;16.484;102.872;2023-02-15T06:46:49;6.45;;;4.57;;
18574;SDS011;9417;16.484;102.872;2023-02-15T06:48:58;6.90;;;4.32;;
18574;SDS011;9417;16.484;102.872;2023-02-15T06:51:05;7.43;;;4.75;;
18574;SDS011;9417;16.484;102.872;2023-02-15T06:53:12;7.50;;;4.55;;
18574;SDS011;9417;16.484;102.872;2023-02-15T06:55:19;5.90;;;4.85;;
18574;SDS011;9417;16.484;102.872;2023-02-15T06:57:26;7.32;;;4.82;;
18574;SDS011;9417;16.484;102.872;2023-02-15T06:59:33;8.20;;;4.55;;
18574;SDS011;9417;16.484;102.872;2023-02-15T07:01:40;6.88;;;4.50;;
18574;SDS011;9417;16.484;102.872;2023-02-15T07:03:48;7.68;;;5.40;;
18574;SDS011;9417;16.484;102.872;2023-02-15T07:05:57;7.38;;;4.85;;
18574;SDS011;9417;16.484;102.872;2023-02-15T07:08:05;5.22;;;4.30;;
18574;SDS011;9417;16.484;102.872;2023-02-15T07:10:13;7.10;;;4.68;;
18574;SDS011;9417;16.484;102.872;2023-02-15T07:12:20;7.18;;;4.78;;
18574;SDS011;9417;16.484;102.872;2023-02-15T07:14:43;6.82;;;4.43;;
18574;SDS011;9417;16.484;102.872;2023-02-15T07:16:50;6.75;;;4.57;;
18574;SDS011;9417;16.484;102.872;2023-02-15T07:18:58;9.52;;;5.10;;
18574;SDS011;9417;16.484;102.872;2023-02-15T07:21:07;8.52;;;5.28;;
18574;SDS011;9417;16.484;102.872;2023-02-15T07:23:14;9.30;;;4.80;;
18574;SDS011;9417;16.484;102.872;2023-02-15T07:25:21;5.70;;;4.55;;
18574;SDS011;9417;16.484;102.872;2023-02-15T07:27:28;5.50;;;3.85;;
18574;SDS011;9417;16.484;102.872;2023-02-15T07:29:35;6.40;;;3.90;;
18574;SDS011;9417;16.484;102.872;2023-02-15T07:31:42;9.27;;;4.60;;
18574;SDS011;9417;16.484;102.872;2023-02-15T07:33:49;6.28;;;4.45;;
18574;SDS011;9417;16.484;102.872;2023-02-15T07:35:57;6.65;;;3.72;;
18574;SDS011;9417;16.484;102.872;2023-02-15T07:38:07;6.43;;;4.30;;
18574;SDS011;9417;16.484;102.872;2023-02-15T07:40:14;5.45;;;4.20;;
18574;SDS011;9417;16.484;102.872;2023-02-15T07:42:22;6.20;;;4.22;;
18574;SDS011;9417;16.484;102.872;2023-02-15T07:44:29;5.75;;;4.05;;
18574;SDS011;9417;16.484;102.872;2023-02-15T07:46:36;5.60;;;4.32;;
18574;SDS011;9417;16.484;102.872;2023-02-15T07:48:45;5.93;;;4.05;;
18574;SDS011;9417;16.484;102.872;2023-02-15T07:50:52;6.90;;;3.80;;
18574;SDS011;9417;16.484;102.872;2023-02-15T07:53:00;6.85;;;4.22;;
18574;SDS011;9417;16.484;102.872;2023-02-15T07:55:09;7.38;;;3.72;;
18574;SDS011;9417;16.484;102.872;2023-02-15T07:57:16;5.72;;;3.75;;
18574;SDS011;9417;16.484;102.872;2023-02-15T07:59:24;6.38;;;3.92;;
18574;SDS011;9417;16.484;102.872;2023-02-15T08:01:31;7.00;;;4.18;;
18574;SDS011;9417;16.484;102.872;2023-02-15T08:03:39;11.18;;;4.25;;
18574;SDS011;9417;16.484;102.872;2023-02-15T08:05:46;6.65;;;3.70;;
18574;SDS011;9417;16.484;102.872;2023-02-15T08:07:54;6.78;;;3.90;;
18574;SDS011;9417;16.484;102.872;2023-02-15T08:10:01;5.82;;;4.28;;
18574;SDS011;9417;16.484;102.872;2023-02-15T08:12:10;5.38;;;3.92;;
18574;SDS011;9417;16.484;102.872;2023-02-15T08:14:17;6.97;;;3.88;;
18574;SDS011;9417;16.484;102.872;2023-02-15T08:16:26;6.55;;;3.65;;
18574;SDS011;9417;16.484;102.872;2023-02-15T08:18:35;8.32;;;3.78;;
18574;SDS011;9417;16.484;102.872;2023-02-15T08:20:42;5.65;;;3.70;;
18574;SDS011;9417;16.484;102.872;2023-02-15T08:22:53;5.93;;;3.55;;
18574;SDS011;9417;16.484;102.872;2023-02-15T08:25:01;4.85;;;3.38;;
18574;SDS011;9417;16.484;102.872;2023-02-15T08:27:11;8.27;;;3.45;;
18574;SDS011;9417;16.484;102.872;2023-02-15T08:29:18;6.55;;;3.63;;
18574;SDS011;9417;16.484;102.872;2023-02-15T08:31:27;7.65;;;3.80;;
18574;SDS011;9417;16.484;102.872;2023-02-15T08:33:34;5.93;;;3.10;;
18574;SDS011;9417;16.484;102.872;2023-02-15T08:35:42;8.00;;;3.75;;
18574;SDS011;9417;16.484;102.872;2023-02-15T08:37:49;7.20;;;3.42;;
18574;SDS011;9417;16.484;102.872;2023-02-15T08:39:57;5.75;;;3.42;;
18574;SDS011;9417;16.484;102.872;2023-02-15T08:42:06;4.32;;;3.28;;
18574;SDS011;9417;16.484;102.872;2023-02-15T08:44:15;5.10;;;3.70;;
18574;SDS011;9417;16.484;102.872;2023-02-15T08:46:23;11.93;;;4.00;;
18574;SDS011;9417;16.484;102.872;2023-02-15T08:48:31;7.82;;;3.70;;
18574;SDS011;9417;16.484;102.872;2023-02-15T08:50:38;7.05;;;3.83;;
18574;SDS011;9417;16.484;102.872;2023-02-15T08:52:46;7.72;;;3.70;;
18574;SDS011;9417;16.484;102.872;2023-02-15T08:54:53;5.45;;;3.38;;
18574;SDS011;9417;16.484;102.872;2023-02-15T08:57:00;7.88;;;3.95;;
18574;SDS011;9417;16.484;102.872;2023-02-15T08:59:07;4.88;;;3.30;;
18574;SDS011;9417;16.484;102.872;2023-02-15T09:03:27;5.18;;;3.25;;
18574;SDS011;9417;16.484;102.872;2023-02-15T09:05:34;6.90;;;2.90;;
18574;SDS011;9417;16.484;102.872;2023-02-15T09:07:42;6.32;;;3.03;;
18574;SDS011;9417;16.484;102.872;2023-02-15T09:09:49;4.05;;;2.70;;
18574;SDS011;9417;16.484;102.872;2023-02-15T09:11:56;4.68;;;2.75;;
18574;SDS011;9417;16.484;102.872;2023-02-15T09:14:03;4.15;;;3.28;;
18574;SDS011;9417;16.484;102.872;2023-02-15T09:16:12;4.85;;;2.83;;
18574;SDS011;9417;16.484;102.872;2023-02-15T09:18:21;6.22;;;2.90;;
18574;SDS011;9417;16.484;102.872;2023-02-15T09:20:29;6.45;;;3.28;;
18574;SDS011;9417;16.484;102.872;2023-02-15T09:22:36;6.95;;;3.42;;
18574;SDS011;9417;16.484;102.872;2023-02-15T09:24:43;5.72;;;2.75;;
18574;SDS011;9417;16.484;102.872;2023-02-15T09:26:50;3.45;;;2.50;;
18574;SDS011;9417;16.484;102.872;2023-02-15T09:28:57;5.75;;;2.80;;
18574;SDS011;9417;16.484;102.872;2023-02-15T09:31:08;4.38;;;2.70;;
18574;SDS011;9417;16.484;102.872;2023-02-15T09:33:17;3.88;;;2.72;;
18574;SDS011;9417;16.484;102.872;2023-02-15T09:35:27;9.55;;;3.72;;
18574;SDS011;9417;16.484;102.872;2023-02-15T09:37:34;8.82;;;4.10;;
18574;SDS011;9417;16.484;102.872;2023-02-15T09:39:42;6.32;;;3.80;;
18574;SDS011;9417;16.484;102.872;2023-02-15T09:41:58;6.75;;;3.13;;
18574;SDS011;9417;16.484;102.872;2023-02-15T09:44:19;5.28;;;2.97;;
18574;SDS011;9417;16.484;102.872;2023-02-15T09:46:36;9.13;;;3.83;;
18574;SDS011;9417;16.484;102.872;2023-02-15T09:49:08;8.10;;;3.38;;
18574;SDS011;9417;16.484;102.872;2023-02-15T09:51:32;9.10;;;4.00;;
18574;SDS011;9417;16.484;102.872;2023-02-15T09:53:56;4.93;;;3.10;;
18574;SDS011;9417;16.484;102.872;2023-02-15T09:56:15;4.88;;;3.20;;
18574;SDS011;9417;16.484;102.872;2023-02-15T09:58:28;5.17;;;3.07;;
18574;SDS011;9417;16.484;102.872;2023-02-15T10:00:47;6.90;;;3.28;;
18574;SDS011;9417;16.484;102.872;2023-02-15T10:03:07;10.40;;;4.20;;
18574;SDS011;9417;16.484;102.872;2023-02-15T10:05:26;7.57;;;4.18;;
18574;SDS011;9417;16.484;102.872;2023-02-15T10:10:32;6.70;;;4.00;;
18574;SDS011;9417;16.484;102.872;2023-02-15T10:12:52;11.75;;;4.90;;
18574;SDS011;9417;16.484;102.872;2023-02-15T10:15:18;9.35;;;4.85;;
18574;SDS011;9417;16.484;102.872;2023-02-15T10:17:37;6.25;;;4.20;;
18574;SDS011;9417;16.484;102.872;2023-02-15T10:19:55;5.72;;;3.80;;
18574;SDS011;9417;16.484;102.872;2023-02-15T10:22:18;9.82;;;4.13;;
18574;SDS011;9417;16.484;102.872;2023-02-15T10:24:49;6.50;;;3.72;;
18574;SDS011;9417;16.484;102.872;2023-02-15T10:27:17;10.10;;;4.68;;
18574;SDS011;9417;16.484;102.872;2023-02-15T10:29:27;6.68;;;4.35;;
18574;SDS011;9417;16.484;102.872;2023-02-15T10:31:42;7.65;;;4.60;;
18574;SDS011;9417;16.484;102.872;2023-02-15T10:33:58;8.38;;;5.10;;
18574;SDS011;9417;16.484;102.872;2023-02-15T10:36:23;9.27;;;4.68;;
18574;SDS011;9417;16.484;102.872;2023-02-15T10:38:42;8.55;;;4.70;;
18574;SDS011;9417;16.484;102.872;2023-02-15T10:41:01;8.50;;;5.43;;
18574;SDS011;9417;16.484;102.872;2023-02-15T10:43:20;7.53;;;4.82;;
18574;SDS011;9417;16.484;102.872;2023-02-15T10:45:43;10.65;;;5.80;;
18574;SDS011;9417;16.484;102.872;2023-02-15T10:50:44;9.73;;;6.00;;
18574;SDS011;9417;16.484;102.872;2023-02-15T10:52:59;12.50;;;5.65;;
18574;SDS011;9417;16.484;102.872;2023-02-15T10:55:25;11.02;;;5.80;;
18574;SDS011;9417;16.484;102.872;2023-02-15T10:57:46;21.27;;;7.97;;
18574;SDS011;9417;16.484;102.872;2023-02-15T11:00:06;16.70;;;7.80;;
18574;SDS011;9417;16.484;102.872;2023-02-15T11:02:19;17.00;;;8.40;;
18574;SDS011;9417;16.484;102.872;2023-02-15T11:04:42;13.55;;;7.18;;
18574;SDS011;9417;16.484;102.872;2023-02-15T11:06:57;15.23;;;8.15;;
18574;SDS011;9417;16.484;102.872;2023-02-15T11:09:10;17.98;;;6.05;;
18574;SDS011;9417;16.484;102.872;2023-02-15T11:11:20;10.07;;;6.20;;
18574;SDS011;9417;16.484;102.872;2023-02-15T11:13:34;8.90;;;5.40;;
18574;SDS011;9417;16.484;102.872;2023-02-15T11:15:48;10.13;;;5.13;;
18574;SDS011;9417;16.484;102.872;2023-02-15T11:18:00;8.75;;;5.30;;
18574;SDS011;9417;16.484;102.872;2023-02-15T11:20:15;8.70;;;5.45;;
18574;SDS011;9417;16.484;102.872;2023-02-15T11:22:27;11.93;;;9.75;;
18574;SDS011;9417;16.484;102.872;2023-02-15T11:24:37;13.10;;;8.05;;
18574;SDS011;9417;16.484;102.872;2023-02-15T11:26:49;12.05;;;7.45;;
18574;SDS011;9417;16.484;102.872;2023-02-15T11:29:05;10.05;;;6.82;;
18574;SDS011;9417;16.484;102.872;2023-02-15T11:31:19;11.35;;;6.15;;
18574;SDS011;9417;16.484;102.872;2023-02-15T11:33:28;9.00;;;6.30;;
18574;SDS011;9417;16.484;102.872;2023-02-15T11:35:41;14.05;;;5.55;;
18574;SDS011;9417;16.484;102.872;2023-02-15T11:37:54;15.32;;;5.85;;
18574;SDS011;9417;16.484;102.872;2023-02-15T11:40:14;11.73;;;6.10;;
18574;SDS011;9417;16.484;102.872;2023-02-15T11:42:25;8.98;;;5.97;;
18574;SDS011;9417;16.484;102.872;2023-02-15T11:44:38;12.07;;;5.93;;
18574;SDS011;9417;16.484;102.872;2023-02-15T11:46:48;9.65;;;5.00;;
18574;SDS011;9417;16.484;102.872;2023-02-15T11:48:56;8.68;;;5.57;;
18574;SDS011;9417;16.484;102.872;2023-02-15T11:51:03;9.88;;;5.75;;
18574;SDS011;9417;16.484;102.872;2023-02-15T11:53:11;8.65;;;5.18;;
18574;SDS011;9417;16.484;102.872;2023-02-15T11:55:20;6.50;;;4.90;;
18574;SDS011;9417;16.484;102.872;2023-02-15T11:57:31;9.10;;;5.05;;
18574;SDS011;9417;16.484;102.872;2023-02-15T11:59:46;7.72;;;4.63;;
18574;SDS011;9417;16.484;102.872;2023-02-15T12:01:58;9.50;;;5.78;;
18574;SDS011;9417;16.484;102.872;2023-02-15T12:04:06;7.72;;;5.07;;
18574;SDS011;9417;16.484;102.872;2023-02-15T12:06:21;8.30;;;4.97;;
18574;SDS011;9417;16.484;102.872;2023-02-15T12:10:43;11.75;;;6.22;;
18574;SDS011;9417;16.484;102.872;2023-02-15T12:13:09;11.48;;;5.60;;
18574;SDS011;9417;16.484;102.872;2023-02-15T12:15:19;9.32;;;4.95;;
18574;SDS011;9417;16.484;102.872;2023-02-15T12:17:39;7.82;;;4.95;;
18574;SDS011;9417;16.484;102.872;2023-02-15T12:19:54;15.13;;;6.80;;
18574;SDS011;9417;16.484;102.872;2023-02-15T12:22:03;16.02;;;7.63;;
18574;SDS011;9417;16.484;102.872;2023-02-15T12:24:16;20.02;;;10.02;;
18574;SDS011;9417;16.484;102.872;2023-02-15T12:26:27;20.33;;;9.90;;
18574;SDS011;9417;16.484;102.872;2023-02-15T12:28:36;14.70;;;8.30;;
18574;SDS011;9417;16.484;102.872;2023-02-15T12:30:47;12.73;;;7.72;;
18574;SDS011;9417;16.484;102.872;2023-02-15T12:32:56;13.85;;;7.53;;
18574;SDS011;9417;16.484;102.872;2023-02-15T12:35:12;14.02;;;7.72;;
18574;SDS011;9417;16.484;102.872;2023-02-15T12:37:25;14.93;;;9.20;;
18574;SDS011;9417;16.484;102.872;2023-02-15T12:39:35;19.38;;;10.40;;
18574;SDS011;9417;16.484;102.872;2023-02-15T12:41:43;20.45;;;10.68;;
18574;SDS011;9417;16.484;102.872;2023-02-15T12:44:02;21.75;;;11.63;;
18574;SDS011;9417;16.484;102.872;2023-02-15T12:46:23;17.30;;;10.68;;
18574;SDS011;9417;16.484;102.872;2023-02-15T12:48:32;19.25;;;10.85;;
18574;SDS011;9417;16.484;102.872;2023-02-15T12:50:42;16.52;;;10.02;;
18574;SDS011;9417;16.484;102.872;2023-02-15T12:53:05;18.63;;;11.25;;
18574;SDS011;9417;16.484;102.872;2023-02-15T12:55:23;15.95;;;9.85;;
18574;SDS011;9417;16.484;102.872;2023-02-15T12:57:33;21.23;;;10.93;;
18574;SDS011;9417;16.484;102.872;2023-02-15T12:59:46;15.73;;;10.10;;
18574;SDS011;9417;16.484;102.872;2023-02-15T13:01:56;20.17;;;10.68;;
18574;SDS011;9417;16.484;102.872;2023-02-15T13:04:08;17.50;;;10.75;;
18574;SDS011;9417;16.484;102.872;2023-02-15T13:06:29;15.75;;;11.13;;